Time;durP1;ratioP1;P1;durP2;ratioP2;P2;SDS_P1;SDS_P2;PMS_P1;PMS_P2;Temp;Humidity;BMP_temperature;BMP_pressure;BME280_temperature;BME280_humidity;BME280_pressure;Samples;Min_cycle;Max_cycle;Signal;HPM_P1;HPM_P2
2022/08/22 00:02:47;;;;;;;6.07;4.07;;;14.00;99.90;;;;;;5119480;28;20180;-84
2022/08/22 00:05:36;;;;;;;4.27;3.20;;;14.00;99.90;;;;;;5120681;28;20195;-83
2022/08/22 00:08:07;;;;;;;5.83;4.40;;;14.00;99.90;;;;;;5117536;28;20201;-83
2022/08/22 00:10:54;;;;;;;6.33;3.70;;;14.00;99.90;;;;;;5117750;28;20536;-84
2022/08/22 00:13:37;;;;;;;4.83;3.63;;;14.00;99.90;;;;;;5119014;28;20163;-83
2022/08/22 00:16:15;;;;;;;5.00;3.93;;;13.90;99.90;;;;;;5118421;28;20616;-83
2022/08/22 00:19:00;;;;;;;6.30;3.97;;;13.90;99.90;;;;;;5118575;28;20198;-82
2022/08/22 00:21:38;;;;;;;4.97;3.97;;;13.90;99.90;;;;;;5116910;28;20182;-83
2022/08/22 00:24:22;;;;;;;6.30;4.00;;;13.90;99.90;;;;;;5118410;28;20221;-83
2022/08/22 00:27:00;;;;;;;5.23;3.97;;;13.80;99.90;;;;;;5118390;28;20210;-84
2022/08/22 00:29:40;;;;;;;5.80;4.43;;;13.70;99.90;;;;;;5116553;28;20652;-83
2022/08/22 00:32:11;;;;;;;6.70;4.60;;;13.60;99.90;;;;;;5116500;28;20171;-84
2022/08/22 00:34:45;;;;;;;5.13;3.90;;;13.70;99.90;;;;;;5116222;28;20175;-83
2022/08/22 00:37:43;;;;;;;6.50;4.07;;;13.50;99.90;;;;;;5117511;28;20171;-84
2022/08/22 00:40:27;;;;;;;10.57;4.57;;;13.50;99.90;;;;;;5109354;28;20183;-83
2022/08/22 00:43:26;;;;;;;7.53;4.20;;;13.50;99.90;;;;;;5118268;28;20240;-83
2022/08/22 00:46:10;;;;;;;4.67;3.63;;;13.50;99.90;;;;;;5116319;28;20192;-84
2022/08/22 00:48:55;;;;;;;5.67;3.90;;;13.40;99.90;;;;;;5116492;28;20229;-83
2022/08/22 00:51:21;;;;;;;4.40;4.00;;;13.40;99.90;;;;;;5117417;28;20258;-83
2022/08/22 00:54:03;;;;;;;6.73;4.27;;;13.40;99.90;;;;;;5118724;28;20224;-83
2022/08/22 00:56:41;;;;;;;6.87;4.60;;;13.30;99.90;;;;;;5117292;28;20195;-84
2022/08/22 00:59:16;;;;;;;6.23;4.30;;;13.30;99.90;;;;;;5115704;28;20225;-84
2022/08/22 01:02:07;;;;;;;5.23;3.90;;;13.30;99.90;;;;;;5117058;28;20186;-83
2022/08/22 01:04:41;;;;;;;5.53;3.97;;;13.30;99.90;;;;;;5108866;28;20188;-84
2022/08/22 01:07:17;;;;;;;5.03;3.83;;;13.30;99.90;;;;;;5116692;28;20227;-84
2022/08/22 01:10:09;;;;;;;4.87;4.30;;;13.20;99.90;;;;;;5116159;28;20282;-83
2022/08/22 01:12:47;;;;;;;5.67;4.07;;;13.20;99.90;;;;;;5115998;28;20632;-83
2022/08/22 01:15:23;;;;;;;4.53;3.83;;;13.20;99.90;;;;;;5115955;28;20175;-84
2022/08/22 01:18:17;;;;;;;6.67;4.03;;;13.10;99.90;;;;;;5115537;28;20195;-83
2022/08/22 01:21:19;;;;;;;4.83;3.93;;;13.10;99.90;;;;;;5117149;27;20164;-83
2022/08/22 01:24:08;;;;;;;5.17;3.53;;;13.10;99.90;;;;;;5117094;28;20214;-83
2022/08/22 01:26:52;;;;;;;4.27;3.50;;;13.10;99.90;;;;;;5115074;28;20210;-83
2022/08/22 01:30:02;;;;;;;3.83;3.37;;;13.10;99.90;;;;;;5116712;28;20195;-84
2022/08/22 01:32:58;;;;;;;3.60;3.07;;;13.10;99.90;;;;;;5117916;27;20172;-83
2022/08/22 01:35:35;;;;;;;5.10;4.10;;;13.00;99.90;;;;;;5118055;28;20214;-83
2022/08/22 01:38:22;;;;;;;4.73;3.83;;;13.00;99.90;;;;;;5117573;28;20694;-83
2022/08/22 01:41:25;;;;;;;4.63;3.77;;;13.00;99.90;;;;;;5118672;28;20183;-85
2022/08/22 01:44:09;;;;;;;4.87;4.10;;;13.00;99.90;;;;;;5118838;28;20654;-83
2022/08/22 01:46:58;;;;;;;4.37;3.83;;;13.00;99.90;;;;;;5117357;28;20222;-83
2022/08/22 01:49:30;;;;;;;5.63;4.07;;;13.00;99.90;;;;;;5116185;28;20195;-83
2022/08/22 01:52:21;;;;;;;3.83;3.40;;;13.00;99.90;;;;;;5116959;28;20633;-83
2022/08/22 01:54:53;;;;;;;4.43;3.73;;;12.90;99.90;;;;;;5116072;28;20195;-83
2022/08/22 01:57:19;;;;;;;5.23;3.90;;;;;;;;;;5117854;28;20174;-83
2022/08/22 01:59:48;;;;;;;6.23;4.13;;;12.80;99.90;;;;;;5117194;28;20263;-83
2022/08/22 02:02:26;;;;;;;4.97;3.87;;;12.80;99.90;;;;;;5116316;28;20637;-83
2022/08/22 02:05:20;;;;;;;4.93;3.63;;;12.80;99.90;;;;;;5116729;28;20172;-82
2022/08/22 02:07:58;;;;;;;5.70;4.03;;;12.80;99.90;;;;;;5114705;28;20667;-81
2022/08/22 02:10:56;;;;;;;5.40;4.10;;;12.80;99.90;;;;;;5114606;28;20531;-82
2022/08/22 02:13:32;;;;;;;6.47;4.03;;;12.80;99.90;;;;;;5114379;28;20176;-83
2022/08/22 02:16:22;;;;;;;4.50;3.87;;;12.90;99.90;;;;;;5115503;28;20179;-84
2022/08/22 02:19:14;;;;;;;4.97;4.00;;;12.80;99.90;;;;;;5117134;28;20211;-83
2022/08/22 02:21:56;;;;;;;7.97;3.80;;;12.80;99.90;;;;;;5096338;28;20194;-83
2022/08/22 02:24:55;;;;;;;5.50;4.30;;;12.80;99.90;;;;;;5115421;28;20175;-82
2022/08/22 02:27:35;;;;;;;4.97;3.60;;;12.80;99.90;;;;;;5115616;28;20199;-83
2022/08/22 02:30:11;;;;;;;6.93;3.83;;;12.80;99.90;;;;;;5115273;28;20170;-82
2022/08/22 02:32:40;;;;;;;7.57;4.10;;;12.80;99.90;;;;;;5115263;28;20183;-84
2022/08/22 02:35:06;;;;;;;4.63;3.73;;;12.70;99.90;;;;;;5114953;28;20653;-84
2022/08/22 02:37:34;;;;;;;5.80;3.47;;;12.70;99.90;;;;;;5116073;28;20171;-83
2022/08/22 02:40:07;;;;;;;4.40;3.40;;;12.70;99.90;;;;;;5115038;28;20265;-82
2022/08/22 02:42:55;;;;;;;4.23;3.70;;;12.70;99.90;;;;;;5115099;28;20690;-83
2022/08/22 02:45:44;;;;;;;5.80;3.50;;;12.70;99.90;;;;;;5116050;28;20208;-82
2022/08/22 02:48:24;;;;;;;5.10;3.73;;;12.70;99.90;;;;;;5114812;28;20191;-83
2022/08/22 02:50:59;;;;;;;4.30;3.90;;;12.70;99.90;;;;;;5114826;28;20202;-84
2022/08/22 02:53:35;;;;;;;6.53;3.97;;;12.70;99.90;;;;;;5114866;28;20216;-84
2022/08/22 02:56:15;;;;;;;7.90;3.60;;;12.70;99.90;;;;;;5116265;28;20235;-84
2022/08/22 02:58:45;;;;;;;5.97;3.50;;;12.70;99.90;;;;;;5114706;28;20703;-83
2022/08/22 03:01:20;;;;;;;4.30;3.70;;;12.70;99.90;;;;;;5115123;28;20182;-84
2022/08/22 03:03:47;;;;;;;4.33;3.90;;;12.60;99.90;;;;;;5116717;28;20167;-82
2022/08/22 03:06:31;;;;;;;6.30;4.03;;;12.60;99.90;;;;;;5115163;28;20244;-82
2022/08/22 03:09:06;;;;;;;4.23;3.83;;;12.70;99.90;;;;;;5115243;28;20195;-83
2022/08/22 03:11:37;;;;;;;8.53;3.60;;;12.60;99.90;;;;;;5115913;28;20178;-83
2022/08/22 03:14:26;;;;;;;5.70;4.50;;;12.60;99.90;;;;;;5121352;28;20186;-83
2022/08/22 03:17:15;;;;;;;8.03;4.23;;;12.60;99.90;;;;;;5121079;28;20241;-83
2022/08/22 03:20:05;;;;;;;5.70;3.97;;;12.60;99.90;;;;;;5122093;28;20521;-84
2022/08/22 03:23:01;;;;;;;5.43;3.93;;;12.50;99.90;;;;;;5121444;28;20171;-83
2022/08/22 03:25:39;;;;;;;4.17;3.70;;;12.50;99.90;;;;;;5120773;28;20191;-84
2022/08/22 03:28:13;;;;;;;4.37;3.93;;;12.50;99.90;;;;;;5120601;28;20235;-83
2022/08/22 03:30:54;;;;;;;7.00;3.63;;;12.50;99.90;;;;;;5121675;28;20171;-82
2022/08/22 03:33:23;;;;;;;4.03;3.60;;;12.50;99.90;;;;;;5118899;28;20175;-83
2022/08/22 03:35:52;;;;;;;5.20;3.77;;;12.50;99.90;;;;;;5118941;28;20175;-84
2022/08/22 03:38:28;;;;;;;4.10;3.50;;;12.40;99.90;;;;;;5117360;28;20195;-82
2022/08/22 03:41:30;;;;;;;8.53;4.40;;;12.40;99.90;;;;;;5117816;28;20174;-82
2022/08/22 03:44:30;;;;;;;4.70;4.20;;;12.40;99.90;;;;;;5117363;28;20667;-82
2022/08/22 03:47:16;;;;;;;4.87;3.80;;;12.30;99.90;;;;;;5118643;28;20579;-82
2022/08/22 03:50:06;;;;;;;4.67;3.77;;;12.30;99.90;;;;;;5118913;28;20188;-81
2022/08/22 03:53:10;;;;;;;4.17;3.77;;;12.40;99.90;;;;;;5118590;28;20171;-82
2022/08/22 03:56:08;;;;;;;5.30;3.73;;;12.30;99.90;;;;;;5058990;28;20685;-82
2022/08/22 03:59:03;;;;;;;4.20;3.60;;;12.30;99.90;;;;;;5117174;28;20218;-82
2022/08/22 04:01:35;;;;;;;6.13;4.10;;;12.40;99.90;;;;;;5118579;28;20638;-82
2022/08/22 04:04:10;;;;;;;4.93;3.93;;;12.30;99.90;;;;;;5118507;28;20175;-83
2022/08/22 04:07:07;;;;;;;4.80;4.30;;;12.30;99.90;;;;;;5117190;28;20548;-84
2022/08/22 04:10:23;;;;;;;5.73;4.30;;;12.30;99.90;;;;;;5118444;28;20187;-83
2022/08/22 04:13:20;;;;;;;6.73;3.80;;;12.30;99.90;;;;;;5064563;28;20191;-84
2022/08/22 04:16:05;;;;;;;4.67;4.17;;;12.30;99.90;;;;;;5117351;28;20186;-83
2022/08/22 04:18:49;;;;;;;5.27;4.60;;;12.30;99.90;;;;;;5117157;28;20544;-83
2022/08/22 04:21:46;;;;;;;4.90;4.50;;;12.30;99.90;;;;;;5118490;28;20172;-83
2022/08/22 04:24:51;;;;;;;6.63;4.20;;;12.20;99.90;;;;;;5116080;28;20179;-83
2022/08/22 04:27:23;;;;;;;5.07;4.57;;;12.10;99.90;;;;;;5114055;28;20219;-83
2022/08/22 04:29:57;;;;;;;7.23;4.00;;;12.10;99.90;;;;;;5118765;28;20167;-82
2022/08/22 04:32:40;;;;;;;5.97;4.27;;;12.10;99.90;;;;;;5117339;28;20183;-82
2022/08/22 04:35:26;;;;;;;4.40;3.80;;;12.00;99.90;;;;;;5117134;28;20261;-83
2022/08/22 04:37:55;;;;;;;5.43;4.07;;;12.10;99.90;;;;;;5118170;27;20594;-84
2022/08/22 04:40:27;;;;;;;5.90;4.23;;;12.00;99.90;;;;;;5116932;28;20183;-84
2022/08/22 04:43:23;;;;;;;8.47;4.03;;;12.10;99.90;;;;;;5118253;28;20164;-82
2022/08/22 04:46:06;;;;;;;8.73;3.90;;;12.10;99.90;;;;;;5117525;28;20195;-82
2022/08/22 04:48:51;;;;;;;5.43;3.67;;;12.10;99.90;;;;;;5118266;28;20271;-83
2022/08/22 04:51:32;;;;;;;4.47;3.43;;;12.10;99.90;;;;;;5118416;28;20663;-83
2022/08/22 04:54:29;;;;;;;5.50;4.30;;;12.10;99.90;;;;;;5117236;28;20262;-83
2022/08/22 04:57:20;;;;;;;5.33;4.00;;;12.10;99.90;;;;;;5118818;28;20183;-83
2022/08/22 04:59:46;;;;;;;5.17;3.70;;;12.20;99.90;;;;;;5116994;28;20195;-82
2022/08/22 05:02:21;;;;;;;4.57;3.57;;;12.20;99.90;;;;;;5118891;28;20171;-83
2022/08/22 05:04:58;;;;;;;4.77;4.27;;;12.20;99.90;;;;;;5118576;28;20630;-83
2022/08/22 05:07:28;;;;;;;6.63;3.83;;;12.30;99.90;;;;;;5116513;28;20214;-83
2022/08/22 05:10:19;;;;;;;10.40;4.07;;;12.30;99.90;;;;;;5117189;28;20186;-82
2022/08/22 05:12:52;;;;;;;5.30;4.00;;;12.40;99.90;;;;;;5118806;28;20208;-83
2022/08/22 05:15:22;;;;;;;7.40;4.10;;;12.40;99.90;;;;;;5119059;28;20176;-83
2022/08/22 05:17:50;;;;;;;5.30;4.10;;;12.50;99.90;;;;;;5117205;28;20192;-83
2022/08/22 05:20:20;;;;;;;4.47;4.07;;;12.50;99.90;;;;;;5117927;28;20170;-84
2022/08/22 05:22:51;;;;;;;4.87;4.17;;;12.60;99.90;;;;;;5116362;28;20696;-83
2022/08/22 05:25:25;;;;;;;7.27;4.40;;;12.60;99.90;;;;;;5116782;28;20252;-83
2022/08/22 05:28:06;;;;;;;7.07;4.23;;;12.70;99.90;;;;;;5118142;28;20190;-83
2022/08/22 05:30:34;;;;;;;5.87;3.73;;;12.60;99.90;;;;;;5117891;28;20183;-82
2022/08/22 05:33:23;;;;;;;4.87;3.70;;;12.70;99.90;;;;;;5117128;28;20171;-83
2022/08/22 05:36:03;;;;;;;4.37;3.60;;;12.80;99.90;;;;;;5117211;28;20180;-83
2022/08/22 05:38:32;;;;;;;7.43;4.40;;;12.90;99.90;;;;;;5117545;28;20202;-84
2022/08/22 05:41:08;;;;;;;5.13;3.73;;;12.90;99.90;;;;;;5117129;28;20187;-84
2022/08/22 05:43:41;;;;;;;4.80;3.20;;;13.00;99.90;;;;;;5117352;28;20201;-84
2022/08/22 05:46:15;;;;;;;6.50;3.47;;;13.10;99.90;;;;;;5120032;28;20179;-84
2022/08/22 05:48:46;;;;;;;4.10;3.47;;;13.20;99.90;;;;;;5116974;28;20245;-83
2022/08/22 05:51:20;;;;;;;4.17;3.40;;;13.20;99.90;;;;;;5116752;28;20222;-82
2022/08/22 05:53:50;;;;;;;4.23;3.83;;;13.30;99.90;;;;;;5116939;28;20263;-84
2022/08/22 05:56:40;;;;;;;3.73;3.30;;;13.30;99.90;;;;;;5116380;28;20679;-84
2022/08/22 05:59:28;;;;;;;3.83;3.20;;;13.40;99.90;;;;;;5117464;28;20195;-84
2022/08/22 06:01:54;;;;;;;4.50;3.20;;;13.50;99.90;;;;;;5117825;28;20176;-84
2022/08/22 06:04:26;;;;;;;8.80;3.70;;;13.70;99.90;;;;;;5117571;28;20204;-84
2022/08/22 06:07:13;;;;;;;3.70;3.30;;;13.70;99.90;;;;;;5116316;28;20571;-85
2022/08/22 06:09:42;;;;;;;7.70;3.50;;;13.80;99.90;;;;;;5116681;28;20183;-85
2022/08/22 06:12:13;;;;;;;6.97;2.90;;;13.80;99.90;;;;;;5116947;28;20168;-85
2022/08/22 06:14:55;;;;;;;5.70;3.13;;;13.80;99.90;;;;;;5117059;27;20169;-87
2022/08/22 06:17:29;;;;;;;6.87;3.47;;;14.10;99.90;;;;;;5116196;27;20178;-86
2022/08/22 06:19:56;;;;;;;4.63;3.30;;;14.10;99.90;;;;;;5115026;28;20265;-86
2022/08/22 06:22:31;;;;;;;5.87;3.47;;;14.20;99.90;;;;;;5115130;28;20182;-86
2022/08/22 06:25:19;;;;;;;4.53;3.23;;;14.30;99.90;;;;;;5115010;28;20582;-86
2022/08/22 06:27:48;;;;;;;4.93;3.00;;;14.30;99.90;;;;;;5116584;28;20195;-86
2022/08/22 06:30:15;;;;;;;6.60;3.67;;;14.40;99.90;;;;;;5115412;28;20175;-85
2022/08/22 06:32:47;;;;;;;6.53;3.70;;;14.40;99.90;;;;;;5115056;28;20202;-84
2022/08/22 06:35:28;;;;;;;3.17;2.87;;;14.50;99.90;;;;;;5115081;28;20536;-85
2022/08/22 06:37:58;;;;;;;4.67;3.20;;;14.70;99.90;;;;;;5116687;28;20300;-85
2022/08/22 06:40:27;;;;;;;3.20;2.77;;;14.80;99.90;;;;;;5115947;28;20177;-84
2022/08/22 06:42:54;;;;;;;6.03;3.13;;;14.90;99.90;;;;;;5114336;28;20171;-84
2022/08/22 06:45:31;;;;;;;3.97;2.83;;;15.00;99.90;;;;;;5114371;28;20228;-86
2022/08/22 06:48:18;;;;;;;7.87;3.17;;;15.20;99.90;;;;;;5113835;28;20192;-86
2022/08/22 06:50:50;;;;;;;3.67;3.03;;;15.20;99.90;;;;;;5115071;28;20192;-84
2022/08/22 06:53:20;;;;;;;4.60;3.10;;;15.30;99.90;;;;;;5115911;28;20171;-85
2022/08/22 06:55:56;;;;;;;4.10;3.10;;;15.50;99.90;;;;;;5116449;28;20190;-85
2022/08/22 06:58:26;;;;;;;3.30;3.00;;;15.70;99.90;;;;;;5116201;28;20715;-84
2022/08/22 07:00:59;;;;;;;4.90;3.23;;;15.70;99.90;;;;;;5115668;28;20176;-84
2022/08/22 07:03:35;;;;;;;4.47;3.13;;;15.80;99.90;;;;;;5116906;28;20171;-84
2022/08/22 07:06:02;;;;;;;3.60;2.83;;;15.90;99.90;;;;;;5114238;28;20207;-86
2022/08/22 07:08:33;;;;;;;4.23;2.87;;;16.20;99.90;;;;;;5114867;28;20287;-85
2022/08/22 07:11:20;;;;;;;3.60;2.50;;;16.20;99.90;;;;;;5116348;28;20555;-86
2022/08/22 07:13:58;;;;;;;3.97;2.60;;;16.40;99.90;;;;;;5116096;28;20181;-85
2022/08/22 07:16:39;;;;;;;3.77;2.50;;;16.50;99.90;;;;;;5114985;28;20186;-84
2022/08/22 07:19:06;;;;;;;4.93;3.13;;;16.60;99.90;;;;;;5116273;28;20208;-84
2022/08/22 07:21:46;;;;;;;4.20;2.80;;;16.70;99.90;;;;;;5116419;28;20240;-85
2022/08/22 07:24:16;;;;;;;5.47;3.20;;;16.80;99.90;;;;;;5115554;28;20739;-85
2022/08/22 07:27:04;;;;;;;6.03;2.80;;;16.90;99.90;;;;;;5114825;28;20621;-84
2022/08/22 07:30:06;;;;;;;10.33;3.13;;;17.10;99.90;;;;;;5115156;28;20201;-83
2022/08/22 07:32:47;;;;;;;4.00;2.70;;;17.30;99.90;;;;;;5115070;28;20267;-84
2022/08/22 07:35:15;;;;;;;6.80;3.10;;;17.60;99.90;;;;;;5116103;28;20244;-84
2022/08/22 07:38:03;;;;;;;4.73;3.10;;;18.00;99.90;;;;;;5116034;28;20169;-85
2022/08/22 07:40:31;;;;;;;4.63;3.20;;;18.00;99.90;;;;;;5114216;28;20183;-85
2022/08/22 07:43:09;;;;;;;4.73;3.20;;;18.20;99.90;;;;;;5115827;28;20174;-84
2022/08/22 07:46:02;;;;;;;6.70;3.50;;;18.40;99.90;;;;;;5115733;28;20258;-83
2022/08/22 07:48:43;;;;;;;5.33;3.30;;;18.80;99.90;;;;;;5103682;28;20208;-84
2022/08/22 07:51:16;;;;;;;7.20;4.10;;;18.80;99.90;;;;;;5115770;28;20174;-84
2022/08/22 07:54:15;;;;;;;4.23;3.63;;;19.00;99.90;;;;;;5115627;28;20206;-85
2022/08/22 07:57:08;;;;;;;5.23;3.30;;;19.10;99.90;;;;;;5114949;28;20205;-83
2022/08/22 07:59:42;;;;;;;6.37;3.90;;;19.20;99.90;;;;;;5117715;28;20233;-84
2022/08/22 08:02:11;;;;;;;6.47;3.77;;;19.30;99.90;;;;;;5121183;28;20179;-84
2022/08/22 08:04:39;;;;;;;5.13;4.17;;;19.50;99.90;;;;;;5120630;28;20199;-84
2022/08/22 08:07:07;;;;;;;4.80;3.77;;;19.70;99.90;;;;;;5120698;28;20340;-83
2022/08/22 08:09:41;;;;;;;6.13;4.00;;;19.90;99.90;;;;;;5120119;28;20546;-83
2022/08/22 08:12:10;;;;;;;4.67;4.20;;;20.20;99.90;;;;;;5120002;28;20176;-81
2022/08/22 08:14:40;;;;;;;7.93;4.10;;;20.40;99.90;;;;;;5119712;28;20176;-86
2022/08/22 08:17:11;;;;;;;4.70;4.20;;;20.60;99.90;;;;;;5117619;28;20186;-82
2022/08/22 08:19:40;;;;;;;4.50;3.90;;;20.70;99.90;;;;;;5117306;28;20203;-85
2022/08/22 08:22:06;;;;;;;5.07;3.63;;;20.90;99.90;;;;;;5117518;28;20183;-83
2022/08/22 08:24:36;;;;;;;4.40;3.93;;;21.00;99.90;;;;;;5117556;28;20180;-83
2022/08/22 08:30:03;;;;;;;5.33;3.80;;;21.40;99.90;;;;;;5119077;28;20236;-84
2022/08/22 08:32:33;;;;;;;4.43;3.70;;;21.50;99.90;;;;;;5118007;28;20203;-83
2022/08/22 08:35:18;;;;;;;6.60;3.80;;;21.70;99.90;;;;;;5117581;28;20182;-84
2022/08/22 08:37:49;;;;;;;6.50;3.97;;;21.80;99.90;;;;;;5119056;28;20253;-83
2022/08/22 08:40:23;;;;;;;5.17;4.27;;;22.00;99.90;;;;;;5118902;28;20186;-83
2022/08/22 08:46:06;;;;;;;5.10;4.17;;;22.30;99.90;;;;;;5118560;28;20198;-81
2022/08/22 08:48:45;;;;;;;4.80;4.03;;;22.40;99.90;;;;;;5116928;28;20629;-82
2022/08/22 08:51:37;;;;;;;5.47;3.97;;;22.50;99.90;;;;;;5116839;28;20175;-84
2022/08/22 08:54:21;;;;;;;5.13;4.37;;;22.80;99.90;;;;;;5116467;28;20267;-83
2022/08/22 08:57:12;;;;;;;5.37;4.30;;;22.90;99.90;;;;;;5116619;28;20187;-82
2022/08/22 09:00:19;;;;;;;6.90;4.40;;;23.10;99.90;;;;;;5116445;28;20215;-83
2022/08/22 09:02:55;;;;;;;4.40;4.00;;;23.30;99.90;;;;;;5058346;28;20273;-81
2022/08/22 09:05:42;;;;;;;4.70;4.30;;;23.60;99.90;;;;;;5110095;28;20334;-81
2022/08/22 09:08:30;;;;;;;4.57;4.17;;;23.70;99.90;;;;;;5116440;28;20604;-81
2022/08/22 09:11:19;;;;;;;4.80;4.03;;;23.90;99.90;;;;;;5117451;27;20185;-82
2022/08/22 09:14:07;;;;;;;4.73;4.23;;;24.00;99.90;;;;;;5116765;28;20174;-83
2022/08/22 09:16:34;;;;;;;5.07;4.13;;;;;;;;;;5116947;28;20176;-82
2022/08/22 09:19:13;;;;;;;4.70;3.90;;;24.40;99.90;;;;;;5118012;28;20192;-82
2022/08/22 09:21:44;;;;;;;4.93;4.00;;;24.50;99.90;;;;;;5118417;28;20530;-84
2022/08/22 09:24:22;;;;;;;5.33;3.90;;;24.60;99.90;;;;;;5117015;28;20175;-82
2022/08/22 09:26:50;;;;;;;4.30;3.90;;;24.60;99.90;;;;;;5117971;28;20279;-81
2022/08/22 09:29:52;;;;;;;5.07;4.53;;;24.70;99.90;;;;;;5116375;28;20203;-81
2022/08/22 09:32:29;;;;;;;4.90;4.50;;;24.80;99.90;;;;;;5116242;28;20585;-83
2022/08/22 09:35:28;;;;;;;4.90;4.40;;;24.90;99.90;;;;;;5117620;28;20174;-83
2022/08/22 09:38:31;;;;;;;4.43;3.77;;;25.20;99.90;;;;;;5116025;28;20202;-82
2022/08/22 09:41:22;;;;;;;5.57;3.90;;;25.30;99.90;;;;;;5116966;28;20623;-83
2022/08/22 09:43:53;;;;;;;3.57;3.27;;;25.40;99.90;;;;;;5116380;28;20193;-83
2022/08/22 09:46:31;;;;;;;4.10;3.50;;;25.70;99.90;;;;;;5118060;28;20221;-82
2022/08/22 09:49:16;;;;;;;4.27;3.87;;;26.00;99.90;;;;;;5116047;28;20192;-82
2022/08/22 09:52:01;;;;;;;4.23;3.83;;;26.00;99.90;;;;;;5119454;28;20168;-83
2022/08/22 09:54:35;;;;;;;4.10;3.70;;;25.60;99.90;;;;;;5119899;28;20179;-82
2022/08/22 09:57:58;;;;;;;3.97;3.53;;;25.60;99.90;;;;;;5119287;28;20179;-84
2022/08/22 10:00:51;;;;;;;4.00;3.60;;;25.50;99.90;;;;;;5026992;28;20182;-83
2022/08/22 10:03:50;;;;;;;4.23;3.47;;;25.70;99.90;;;;;;5106657;28;20194;-84
2022/08/22 10:06:22;;;;;;;3.80;3.40;;;25.40;99.90;;;;;;5084940;28;20668;-83
2022/08/22 10:09:05;;;;;;;4.77;3.50;;;25.10;99.90;;;;;;5118092;28;20194;-84
2022/08/22 10:11:49;;;;;;;8.23;3.33;;;25.20;99.90;;;;;;5117356;28;20178;-85
2022/08/22 10:14:23;;;;;;;4.43;3.20;;;25.80;99.90;;;;;;5118826;28;20176;-83
2022/08/22 10:17:17;;;;;;;3.73;3.40;;;26.30;99.90;;;;;;5117930;28;20629;-83
2022/08/22 10:19:58;;;;;;;3.37;3.07;;;26.40;99.90;;;;;;5117970;28;20653;-84
2022/08/22 10:22:56;;;;;;;3.67;3.00;;;26.40;99.90;;;;;;5117042;28;20724;-82
2022/08/22 10:25:39;;;;;;;4.50;3.40;;;26.70;99.90;;;;;;5117709;28;20691;-80
2022/08/22 10:28:11;;;;;;;3.57;3.27;;;27.20;99.90;;;;;;5117077;28;20280;-84
2022/08/22 10:31:11;;;;;;;3.73;3.33;;;27.30;99.90;;;;;;5118500;28;20642;-83
2022/08/22 10:34:01;;;;;;;4.40;2.93;;;27.20;99.90;;;;;;5119025;28;20173;-83
2022/08/22 10:36:27;;;;;;;3.40;3.10;;;27.50;99.90;;;;;;5119086;28;20516;-82
2022/08/22 10:38:57;;;;;;;6.33;3.00;;;28.00;99.90;;;;;;5114677;28;20199;-82
2022/08/22 10:41:54;;;;;;;2.93;2.67;;;28.10;99.90;;;;;;5116379;28;20569;-82
2022/08/22 10:44:37;;;;;;;5.07;2.93;;;28.40;99.90;;;;;;5115263;28;20175;-82
2022/08/22 10:47:31;;;;;;;3.20;2.90;;;28.30;99.90;;;;;;5114948;28;20208;-82
2022/08/22 10:50:25;;;;;;;3.40;2.90;;;28.30;99.90;;;;;;5116095;28;20175;-83
2022/08/22 10:55:47;;;;;;;3.60;3.30;;;28.10;99.90;;;;;;5116588;28;20206;-82
2022/08/22 10:58:48;;;;;;;4.27;2.83;;;26.60;99.90;;;;;;5114861;28;20284;-81
2022/08/22 11:01:17;;;;;;;3.70;3.20;;;25.80;99.90;;;;;;5114824;28;20698;-81
2022/08/22 11:04:04;;;;;;;5.77;3.27;;;24.90;99.90;;;;;;5116913;28;20197;-83
2022/08/22 11:06:56;;;;;;;3.10;2.70;;;24.90;99.90;;;;;;5114917;28;20203;-82
2022/08/22 11:09:25;;;;;;;3.80;2.70;;;25.60;99.90;;;;;;5114665;28;20244;-83
2022/08/22 11:12:18;;;;;;;5.17;2.73;;;26.20;99.90;;;;;;5115345;28;20186;-83
2022/08/22 11:15:17;;;;;;;9.87;2.80;;;26.80;99.90;;;;;;5116412;28;20221;-82
2022/08/22 11:18:14;;;;;;;6.40;2.77;;;26.20;99.90;;;;;;5114837;28;20176;-83
2022/08/22 11:20:49;;;;;;;3.83;3.00;;;26.10;99.90;;;;;;5114299;28;20177;-82
2022/08/22 11:23:42;;;;;;;3.00;2.60;;;26.60;99.90;;;;;;5114979;28;20201;-81
2022/08/22 11:26:22;;;;;;;4.47;3.07;;;26.90;99.90;;;;;;5114456;28;20219;-84
2022/08/22 11:28:55;;;;;;;4.30;2.83;;;27.40;99.90;;;;;;5116084;28;20197;-81
2022/08/22 11:31:26;;;;;;;3.23;2.80;;;27.20;99.90;;;;;;5116018;28;20174;-85
2022/08/22 11:34:12;;;;;;;3.67;2.53;;;27.20;99.90;;;;;;5119124;28;20170;-82
2022/08/22 11:37:04;;;;;;;4.93;2.50;;;27.50;99.90;;;;;;5118875;28;20223;-82
2022/08/22 11:39:43;;;;;;;4.40;3.47;;;27.60;99.90;;;;;;5120211;28;20239;-83
2022/08/22 11:42:26;;;;;;;4.17;2.43;;;27.90;99.90;;;;;;5118984;28;20179;-84
2022/08/22 11:44:58;;;;;;;5.93;2.40;;;28.90;99.90;;;;;;5119039;28;20190;-83
2022/08/22 11:47:32;;;;;;;4.33;2.40;;;29.00;99.90;;;;;;5118516;28;20206;-83
2022/08/22 11:49:58;;;;;;;3.90;2.53;;;;;;;;;;5118554;28;20185;-81
2022/08/22 11:52:49;;;;;;;2.83;2.53;;;29.40;99.90;;;;;;5119872;28;20174;-83
2022/08/22 11:55:30;;;;;;;4.43;2.63;;;28.80;99.90;;;;;;5119598;28;20708;-83
2022/08/22 11:58:13;;;;;;;3.13;2.50;;;29.40;99.90;;;;;;5118074;28;20198;-80
2022/08/22 12:01:03;;;;;;;5.23;2.70;;;29.50;99.90;;;;;;5119359;28;20178;-83
2022/08/22 12:03:58;;;;;;;3.50;3.10;;;29.70;99.90;;;;;;5119430;28;20656;-81
2022/08/22 12:06:35;;;;;;;2.67;2.37;;;30.10;99.90;;;;;;5118198;28;20204;-82
2022/08/22 12:09:12;;;;;;;5.13;3.40;;;29.40;99.90;;;;;;5117701;28;20194;-84
2022/08/22 12:11:53;;;;;;;3.93;2.80;;;29.20;99.90;;;;;;5117992;28;20180;-84
2022/08/22 12:14:38;;;;;;;4.67;2.50;;;28.90;99.40;;;;;;5119535;28;20171;-83
2022/08/22 12:17:40;;;;;;;5.57;3.13;;;28.70;99.90;;;;;;5119883;28;20232;-83
2022/08/22 12:20:25;;;;;;;6.80;2.53;;;28.50;99.90;;;;;;5117740;28;20263;-84
2022/08/22 12:23:15;;;;;;;3.77;2.43;;;28.40;99.90;;;;;;5116914;28;20189;-81
2022/08/22 12:25:50;;;;;;;3.70;2.43;;;;;;;;;;5118931;28;20211;-82
2022/08/22 12:28:25;;;;;;;3.70;2.63;;;27.30;99.90;;;;;;5117456;28;20244;-83
2022/08/22 12:31:08;;;;;;;3.37;2.47;;;26.20;99.90;;;;;;5118156;28;20176;-82
2022/08/22 12:33:40;;;;;;;5.93;2.60;;;26.30;99.90;;;;;;5117390;28;20609;-84
2022/08/22 12:36:45;;;;;;;3.97;2.40;;;25.50;99.90;;;;;;5119061;28;20225;-82
2022/08/22 12:39:23;;;;;;;3.20;2.60;;;25.70;99.90;;;;;;5118939;28;20204;-83
2022/08/22 12:42:45;;;;;;;2.57;2.37;;;27.20;99.90;;;;;;5117263;28;20183;-86
2022/08/22 12:45:11;;;;;;;6.23;2.47;;;;;;;;;;5057994;28;20593;-82
2022/08/22 12:48:29;;;;;;;7.83;2.33;;;28.10;99.90;;;;;;5059058;28;20791;-84
2022/08/22 12:50:56;;;;;;;3.20;2.37;;;;;;;;;;5056014;28;20276;-85
2022/08/22 12:54:05;;;;;;;4.40;2.30;;;28.90;99.90;;;;;;5117272;28;20629;-82
2022/08/22 12:56:48;;;;;;;3.37;2.40;;;29.20;99.70;;;;;;5075588;28;20200;-81
2022/08/22 12:59:39;;;;;;;6.87;2.70;;;29.40;99.90;;;;;;5115338;28;20209;-83
2022/08/22 13:02:26;;;;;;;6.77;2.17;;;29.30;98.50;;;;;;5119506;28;20233;-83
2022/08/22 13:04:58;;;;;;;5.83;2.50;;;29.50;93.10;;;;;;5117093;28;20190;-81
2022/08/22 13:07:31;;;;;;;4.00;2.33;;;29.40;96.80;;;;;;5118445;28;20215;-81
2022/08/22 13:10:20;;;;;;;3.20;2.20;;;29.70;93.40;;;;;;5118018;28;20267;-83
2022/08/22 13:12:48;;;;;;;3.13;2.20;;;29.90;97.20;;;;;;5098286;28;20587;-83
2022/08/22 13:15:20;;;;;;;3.17;2.20;;;29.50;97.80;;;;;;5118878;28;20285;-82
2022/08/22 13:17:49;;;;;;;5.83;2.60;;;30.30;92.70;;;;;;5118516;28;20188;-83
2022/08/22 13:20:28;;;;;;;2.87;2.57;;;29.90;95.70;;;;;;5119297;28;20183;-82
2022/08/22 13:22:54;;;;;;;5.10;2.17;;;30.20;96.30;;;;;;5118871;28;20170;-83
2022/08/22 13:25:20;;;;;;;6.20;2.47;;;;;;;;;;5117413;28;20262;-81
2022/08/22 13:27:59;;;;;;;5.60;2.10;;;30.20;91.80;;;;;;5118592;28;20207;-81
2022/08/22 13:30:36;;;;;;;4.10;2.67;;;30.00;90.60;;;;;;5117592;28;20239;-82
2022/08/22 13:33:21;;;;;;;4.97;2.57;;;29.70;96.20;;;;;;5118670;28;20557;-81
2022/08/22 13:35:51;;;;;;;2.97;2.47;;;30.10;96.40;;;;;;5119113;28;20164;-82
2022/08/22 13:38:28;;;;;;;5.10;2.60;;;30.40;90.80;;;;;;5118070;28;20243;-81
2022/08/22 13:40:56;;;;;;;2.83;2.30;;;30.40;85.50;;;;;;5116918;28;20168;-83
2022/08/22 13:43:29;;;;;;;2.27;2.00;;;30.60;92.20;;;;;;5118480;28;20172;-83
2022/08/22 13:46:01;;;;;;;3.93;2.67;;;30.70;91.80;;;;;;5116483;28;20203;-84
2022/08/22 13:48:49;;;;;;;3.77;2.33;;;31.10;93.80;;;;;;5118146;28;20184;-82
2022/08/22 13:51:25;;;;;;;3.90;2.50;;;31.00;91.10;;;;;;5117664;28;20551;-82
2022/08/22 13:54:06;;;;;;;2.90;2.57;;;31.20;86.80;;;;;;5117072;28;20202;-84
2022/08/22 13:56:46;;;;;;;5.63;2.30;;;30.70;86.10;;;;;;5117015;28;20653;-82
2022/08/22 13:59:21;;;;;;;4.90;2.20;;;30.70;90.10;;;;;;5118351;28;20740;-82
2022/08/22 14:02:02;;;;;;;3.57;2.27;;;30.70;88.80;;;;;;5118478;28;20178;-82
2022/08/22 14:04:38;;;;;;;7.17;2.37;;;29.00;92.10;;;;;;5116804;28;20186;-82
2022/08/22 14:07:03;;;;;;;3.73;1.83;;;28.90;91.90;;;;;;5117958;27;20195;-84
2022/08/22 14:09:46;;;;;;;3.93;2.23;;;29.00;90.20;;;;;;5118065;28;20190;-83